.
WxDataArchive / Data Records for 2012-05-15
2012-05-14 May 2012 2012-05-16

Data Records for Tuesday, 15 May 2012

Time	Temp	Chill	HIndex	Humid	Dewpt	 Wind 	HiWind	WindDir	Rain 	Barom 
-----	----	-----	------	-----	-----	------	------	-------	-----	----- 
00:00	58.0	58.0	58.0	55	41.9	0	0	---	0.00	29.999 
00:05	57.5	57.5	57.5	55	41.5	0	0	---	0.00	29.999 
00:10	57.2	57.2	57.2	55	41.2	0	0	---	0.00	29.999 
00:15	56.9	56.9	56.9	55	40.9	0	0	---	0.00	29.997 
00:20	56.6	56.6	56.6	58	42.0	0	0	---	0.00	29.997 
00:25	56.3	56.3	56.3	60	42.6	0	0	---	0.00	29.997 
00:30	56.2	56.2	56.2	59	42.1	0	0	---	0.00	29.999 
00:35	55.9	55.9	55.9	61	42.6	0	0	---	0.00	29.999 
00:40	55.7	55.7	55.7	62	42.9	0	0	---	0.00	29.999 
00:45	55.6	55.6	55.6	62	42.8	0	0	---	0.00	29.999 
00:50	55.3	55.3	55.3	62	42.5	0	0	---	0.00	29.999 
00:55	55.1	55.1	55.1	62	42.3	0	0	---	0.00	29.999 
01:00	55.0	55.0	55.0	63	42.6	0	0	---	0.00	29.997 
01:05	54.7	54.7	54.7	64	42.8	0	0	---	0.00	29.997 
01:10	54.4	54.4	54.4	65	42.9	0	3	90	0.00	29.997 
01:15	54.1	54.1	54.1	65	42.6	0	1	90	0.00	29.999 
01:20	54.1	54.1	54.1	65	42.6	0	0	---	0.00	29.999 
01:25	54.2	54.2	54.2	64	42.3	0	0	---	0.00	29.999 
01:30	54.2	54.2	54.2	64	42.3	0	0	---	0.00	29.998 
01:35	54.2	54.2	54.2	64	42.3	0	0	---	0.00	29.998 
01:40	54.1	54.1	54.1	64	42.2	0	0	---	0.00	29.998 
01:45	53.9	53.9	53.9	65	42.4	0	0	---	0.00	29.995 
01:50	53.8	53.8	53.8	65	42.3	0	0	---	0.00	29.995 
01:55	53.6	53.6	53.6	66	42.5	0	0	---	0.00	29.995 
02:00	53.3	53.3	53.3	66	42.2	0	0	---	0.00	29.988 
02:05	53.2	53.2	53.2	67	42.5	0	0	---	0.00	29.988 
02:10	52.9	52.9	52.9	67	42.2	0	0	---	0.00	29.988 
02:15	52.9	52.9	52.9	68	42.6	0	0	---	0.00	29.982 
02:20	52.8	52.8	52.8	68	42.5	0	0	---	0.00	29.982 
02:25	52.8	52.8	52.8	69	42.9	0	0	---	0.00	29.982 
02:30	52.8	52.8	52.8	69	42.9	0	0	---	0.00	29.981 
02:35	52.8	52.8	52.8	69	42.9	0	0	---	0.00	29.981 
02:40	52.6	52.6	52.6	69	42.7	0	0	---	0.00	29.981 
02:45	52.3	52.3	52.3	70	42.8	0	0	---	0.00	29.978 
02:50	52.2	52.2	52.2	70	42.7	0	0	---	0.00	29.978 
02:55	51.9	51.9	51.9	70	42.4	0	0	---	0.00	29.978 
03:00	51.7	51.7	51.7	70	42.2	0	0	---	0.00	29.973 
03:05	51.6	51.6	51.6	71	42.5	0	0	---	0.00	29.973 
03:10	51.3	51.3	51.3	72	42.6	0	0	---	0.00	29.973 
03:15	51.1	51.1	51.1	73	42.7	0	0	---	0.00	29.972 
03:20	50.8	50.8	50.8	73	42.5	0	0	---	0.00	29.972 
03:25	50.5	50.5	50.5	74	42.5	0	0	---	0.00	29.972 
03:30	50.4	50.4	50.4	75	42.8	0	0	---	0.00	29.969 
03:35	50.1	50.1	50.1	76	42.8	0	0	---	0.00	29.969 
03:40	49.9	49.9	49.9	76	42.6	0	0	---	0.00	29.969 
03:45	49.6	49.6	49.6	77	42.7	0	0	---	0.00	29.968 
03:50	49.5	49.5	49.5	78	42.9	0	0	---	0.00	29.968 
03:55	49.2	49.2	49.2	78	42.6	0	0	---	0.00	29.968 
04:00	49.1	49.1	49.1	79	42.9	0	0	---	0.00	29.968 
04:05	48.9	48.9	48.9	80	43.0	0	0	---	0.00	29.968 
04:10	48.8	48.8	48.8	81	43.2	0	0	---	0.00	29.968 
04:15	48.6	48.6	48.6	81	43.0	0	0	---	0.00	29.967 
04:20	48.5	48.5	48.5	81	42.9	0	0	---	0.00	29.967 
04:25	48.5	48.5	48.5	82	43.3	0	0	---	0.00	29.967 
04:30	48.3	48.3	48.3	82	43.1	0	0	---	0.00	29.968 
04:35	48.0	48.0	48.0	83	43.1	0	0	---	0.00	29.968 
04:40	48.0	48.0	48.0	83	43.1	0	0	---	0.00	29.968 
04:45	47.9	47.9	47.9	83	43.0	0	0	---	0.00	29.964 
04:50	47.7	47.7	47.7	83	42.8	0	0	---	0.00	29.964 
04:55	47.7	47.7	47.7	83	42.8	0	0	---	0.00	29.964 
05:00	47.6	47.6	47.6	84	43.0	0	0	---	0.00	29.962 
05:05	47.6	47.6	47.6	84	43.0	0	0	---	0.00	29.962 
05:10	47.6	47.6	47.6	84	43.0	0	0	---	0.00	29.962 
05:15	47.4	47.4	47.4	84	42.8	0	0	---	0.00	29.961 
05:20	47.3	47.3	47.3	84	42.7	0	0	---	0.00	29.961 
05:25	47.1	47.1	47.1	84	42.5	0	0	---	0.00	29.961 
05:30	47.0	47.0	47.0	85	42.7	0	0	---	0.00	29.965 
05:35	47.0	47.0	47.0	85	42.7	0	0	---	0.00	29.965 
05:40	46.8	46.8	46.8	85	42.5	0	0	---	0.00	29.965 
05:45	46.8	46.8	46.8	85	42.5	0	0	---	0.00	29.967 
05:50	46.7	46.7	46.7	86	42.7	0	0	---	0.00	29.967 
05:55	46.7	46.7	46.7	86	42.7	0	0	---	0.00	29.967 
06:00	46.7	46.7	46.7	86	42.7	0	0	---	0.00	29.966 
06:05	46.7	46.7	46.7	86	42.7	0	0	---	0.00	29.966 
06:10	46.5	46.5	46.5	86	42.5	0	0	---	0.00	29.966 
06:15	46.5	46.5	46.5	87	42.8	0	0	---	0.00	29.970 
06:20	46.4	46.4	46.4	87	42.7	0	0	---	0.00	29.970 
06:25	46.5	46.5	46.5	87	42.8	0	0	---	0.00	29.970 
06:30	46.5	46.5	46.5	87	42.8	0	0	---	0.00	29.970 
06:35	46.5	46.5	46.5	87	42.8	0	0	---	0.00	29.970 
06:40	46.5	46.5	46.5	87	42.8	0	0	---	0.00	29.970 
06:45	46.5	46.5	46.5	87	42.8	0	0	---	0.00	29.972 
06:50	46.5	46.5	46.5	87	42.8	0	0	---	0.00	29.972 
06:55	46.5	46.5	46.5	87	42.8	0	0	---	0.00	29.972 
07:00	46.5	46.5	46.5	88	43.1	0	0	---	0.00	29.973 
07:05	46.7	46.7	46.7	88	43.3	0	0	---	0.00	29.973 
07:10	47.0	47.0	47.0	88	43.6	0	0	---	0.00	29.973 
07:15	47.4	47.4	47.4	88	44.0	0	0	---	0.00	29.980 
07:20	48.0	48.0	48.0	88	44.6	0	0	---	0.00	29.980 
07:25	48.6	48.6	48.6	88	45.2	0	0	---	0.00	29.980 
07:30	49.4	49.4	49.4	87	45.7	0	0	---	0.00	29.984 
07:35	50.2	50.2	50.2	85	45.9	0	0	---	0.00	29.984 
07:40	51.0	51.0	51.0	84	46.3	0	0	---	0.00	29.984 
07:45	51.9	51.9	51.9	82	46.6	0	0	---	0.00	29.982 
07:50	52.8	52.8	52.8	79	46.5	0	0	---	0.00	29.982 
07:55	53.6	53.6	53.6	76	46.2	0	0	---	0.00	29.982 
08:00	54.5	54.5	54.5	73	46.0	0	0	---	0.00	29.981 
08:05	55.3	55.3	55.3	69	45.3	0	0	---	0.00	29.981 
08:10	56.0	56.0	56.0	67	45.2	0	0	---	0.00	29.981 
08:15	57.2	57.2	57.2	66	45.9	0	0	---	0.00	29.979 
08:20	58.3	58.3	58.3	63	45.8	0	0	---	0.00	29.979 
08:25	58.9	58.9	58.9	59	44.6	0	0	---	0.00	29.979 
08:30	59.5	59.5	59.5	59	45.2	0	0	---	0.00	29.982 
08:35	59.9	59.9	59.9	58	45.1	0	0	---	0.00	29.982 
08:40	60.4	60.4	60.4	57	45.1	0	0	---	0.00	29.982 
08:45	61.0	61.0	61.0	55	44.7	0	0	---	0.00	29.981 
08:50	62.1	62.1	62.1	55	45.7	0	0	---	0.00	29.981 
08:55	63.4	63.4	63.4	54	46.5	0	0	---	0.00	29.981 
09:00	65.0	65.0	65.0	52	46.9	0	0	---	0.00	29.979 
09:05	66.3	66.3	66.3	53	48.6	0	0	---	0.00	29.979 
09:10	67.3	67.3	67.3	48	46.9	0	0	---	0.00	29.979 
09:15	67.6	67.6	67.6	46	46.1	0	0	---	0.00	29.982 
09:20	67.8	67.8	67.8	44	45.1	0	0	---	0.00	29.982 
09:25	68.1	68.1	68.1	44	45.4	0	0	---	0.00	29.982 
09:30	68.6	68.6	68.6	43	45.2	0	0	---	0.00	29.984 
09:35	69.1	69.1	69.1	40	43.8	0	2	90	0.00	29.984 
09:40	69.6	69.6	69.6	37	42.2	1	2	90	0.00	29.984 
09:45	69.9	69.9	69.9	37	42.4	0	2	90	0.00	29.983 
09:50	70.3	70.3	70.3	37	42.8	1	3	270	0.00	29.983 
09:55	70.6	70.6	70.6	37	43.1	1	3	270	0.00	29.983 
10:00	71.1	71.1	71.1	34	41.3	1	3	270	0.00	29.982 
10:05	71.5	71.5	71.5	36	43.1	1	3	270	0.00	29.982 
10:10	71.8	71.8	71.8	35	42.7	1	3	270	0.00	29.982 
10:15	72.0	72.0	72.0	32	40.5	1	5	270	0.00	29.981 
10:20	72.5	72.5	72.5	34	42.5	1	3	270	0.00	29.981 
10:25	72.7	72.7	72.7	28	37.7	2	4	270	0.00	29.981 
10:30	73.0	73.0	73.0	29	38.9	1	3	292	0.00	29.983 
10:35	73.3	73.3	73.3	32	41.6	1	3	292	0.00	29.983 
10:40	73.9	73.9	73.9	27	37.8	1	4	270	0.00	29.983 
10:45	74.0	74.0	74.0	29	39.7	2	4	292	0.00	29.982 
10:50	74.0	74.0	74.0	27	37.9	2	5	270	0.00	29.982 
10:55	74.2	74.2	74.2	27	38.1	2	4	270	0.00	29.982 
11:00	74.7	74.7	74.7	26	37.5	1	4	270	0.00	29.982 
11:05	74.9	74.9	74.9	26	37.7	2	5	315	0.00	29.982 
11:10	75.3	75.3	76.6	25	37.0	2	5	315	0.00	29.982 
11:15	75.6	75.6	76.8	26	38.3	2	4	248	0.00	29.981 
11:20	75.8	75.8	76.8	25	37.5	2	4	248	0.00	29.981 
11:25	76.0	76.0	77.0	26	38.6	2	4	248	0.00	29.981 
11:30	76.1	76.1	77.0	26	38.7	1	3	270	0.00	29.977 
11:35	76.8	76.8	77.3	26	39.3	1	3	270	0.00	29.977 
11:40	77.2	77.2	77.3	23	36.5	2	5	270	0.00	29.977 
11:45	76.8	76.8	77.2	24	37.3	3	5	270	0.00	29.976 
11:50	76.8	76.8	77.2	25	38.3	3	6	270	0.00	29.976 
11:55	77.0	77.0	77.3	25	38.5	2	6	270	0.00	29.976 
12:00	77.2	77.2	77.4	25	38.6	2	5	270	0.00	29.975 
12:05	77.4	77.4	77.5	25	38.8	3	5	270	0.00	29.975 
12:10	77.6	77.6	77.6	25	39.0	2	4	270	0.00	29.975 
12:15	77.9	77.9	77.8	26	40.2	3	6	270	0.00	29.973 
12:20	77.7	77.7	77.8	28	42.0	2	5	338	0.00	29.973 
12:25	78.1	78.1	77.9	26	40.4	2	5	270	0.00	29.973 
12:30	78.1	78.1	78.0	27	41.4	2	4	315	0.00	29.968 
12:35	78.3	78.3	77.9	25	39.6	2	5	270	0.00	29.968 
12:40	78.6	78.6	78.2	26	40.8	1	2	270	0.00	29.968 
12:45	78.8	78.8	78.3	26	41.0	3	5	270	0.00	29.962 
12:50	78.6	78.6	78.1	25	39.8	3	6	315	0.00	29.962 
12:55	79.2	79.2	78.4	24	39.3	2	5	270	0.00	29.962 
13:00	79.4	79.4	78.5	24	39.4	1	4	338	0.00	29.960 
13:05	79.0	79.0	78.4	26	41.2	2	7	315	0.00	29.960 
13:10	79.2	79.2	78.6	28	43.3	1	4	270	0.00	29.960 
13:15	79.4	79.4	78.4	23	38.4	2	6	292	0.00	29.955 
13:20	79.2	79.2	78.3	23	38.2	2	5	270	0.00	29.955 
13:25	79.6	79.6	78.5	22	37.4	3	7	270	0.00	29.955 
13:30	79.6	79.6	78.5	23	38.5	2	5	270	0.00	29.949 
13:35	79.8	79.8	78.8	25	40.8	1	3	338	0.00	29.949 
13:40	80.1	80.1	78.8	23	38.9	2	4	315	0.00	29.949 
13:45	80.5	80.5	79.0	22	38.1	1	4	270	0.00	29.942 
13:50	80.3	80.3	78.9	22	38.0	2	7	292	0.00	29.942 
13:55	80.1	80.1	78.8	23	38.9	2	4	315	0.00	29.942 
14:00	80.3	80.3	78.9	22	38.0	2	5	270	0.00	29.938 
14:05	80.5	80.5	79.0	22	38.1	3	5	270	0.00	29.938 
14:10	80.3	80.3	78.9	23	39.1	2	5	270	0.00	29.938 
14:15	80.3	80.3	79.0	24	40.2	1	3	270	0.00	29.934 
14:20	80.3	80.3	78.8	21	36.8	1	5	292	0.00	29.934 
14:25	80.7	80.7	79.1	22	38.3	2	6	270	0.00	29.934 
14:30	81.1	81.1	79.4	22	38.6	1	3	270	0.00	29.932 
14:35	81.6	81.6	79.8	24	41.3	1	4	112	0.00	29.932 
14:40	81.4	81.4	79.6	22	38.9	2	6	270	0.00	29.932 
14:45	81.6	81.6	79.7	22	39.0	2	5	270	0.00	29.923 
14:50	81.4	81.4	79.6	22	38.9	2	5	270	0.00	29.923 
14:55	81.4	81.4	79.6	23	40.0	1	3	292	0.00	29.923 
15:00	81.6	81.6	79.7	22	39.0	1	3	292	0.00	29.917 
15:05	81.6	81.6	79.7	22	39.0	1	3	292	0.00	29.917 
15:10	81.8	81.8	79.8	21	38.0	1	4	270	0.00	29.917 
15:15	81.6	81.6	79.8	24	41.3	2	5	338	0.00	29.920 
15:20	81.8	81.8	79.8	22	39.2	1	4	248	0.00	29.920 
15:25	81.6	81.6	79.7	23	40.2	2	4	292	0.00	29.920 
15:30	82.0	82.0	79.9	21	38.2	1	3	90	0.00	29.916 
15:35	82.2	82.2	80.1	22	39.5	2	4	270	0.00	29.916 
15:40	82.2	82.2	80.1	22	39.5	2	4	292	0.00	29.916 
15:45	82.2	82.2	80.0	21	38.4	1	3	270	0.00	29.916 
15:50	82.2	82.2	80.1	22	39.5	1	4	315	0.00	29.916 
15:55	82.0	82.0	79.9	21	38.2	2	4	270	0.00	29.916 
16:00	82.2	82.2	80.0	21	38.4	2	5	292	0.00	29.905 
16:05	82.4	82.4	80.3	24	42.0	1	3	270	0.00	29.905 
16:10	82.6	82.6	80.3	21	38.7	1	4	270	0.00	29.905 
16:15	82.2	82.2	80.0	21	38.4	3	5	270	0.00	29.903 
16:20	82.0	82.0	79.9	21	38.2	1	4	270	0.00	29.903 
16:25	82.2	82.2	80.1	22	39.5	1	3	270	0.00	29.903 
16:30	82.0	82.0	79.9	20	36.9	2	4	292	0.00	29.901 
16:35	82.2	82.2	80.2	24	41.8	1	3	292	0.00	29.901 
16:40	82.4	82.4	80.1	20	37.3	1	3	315	0.00	29.901 
16:45	82.4	82.4	80.3	23	40.9	1	3	315	0.00	29.896 
16:50	82.6	82.6	80.5	24	42.1	1	5	270	0.00	29.896 
16:55	82.8	82.8	80.5	21	38.9	1	2	315	0.00	29.896 
17:00	83.0	83.0	80.6	21	39.0	1	3	315	0.00	29.894 
17:05	83.2	83.2	81.0	25	43.7	0	3	315	0.00	29.894 
17:10	83.2	83.2	80.7	21	39.2	1	2	315	0.00	29.894 
17:15	83.2	83.2	80.7	21	39.2	1	4	315	0.00	29.891 
17:20	82.8	82.8	80.4	19	36.3	2	4	248	0.00	29.891 
17:25	82.4	82.4	80.2	21	38.5	2	5	315	0.00	29.891 
17:30	82.4	82.4	80.2	22	39.7	2	5	270	0.00	29.892 
17:35	82.4	82.4	80.2	21	38.5	1	5	270	0.00	29.892 
17:40	82.6	82.6	80.3	21	38.7	1	3	270	0.00	29.892 
17:45	82.8	82.8	80.5	21	38.9	0	3	270	0.00	29.891 
17:50	82.8	82.8	80.5	22	40.0	1	3	270	0.00	29.891 
17:55	82.8	82.8	80.4	20	37.6	1	3	270	0.00	29.891 
18:00	82.4	82.4	80.1	19	36.0	2	4	315	0.00	29.889 
18:05	82.2	82.2	80.0	21	38.4	1	3	248	0.00	29.889 
18:10	82.0	82.0	80.0	22	39.4	1	3	248	0.00	29.889 
18:15	82.0	82.0	79.9	21	38.2	2	5	248	0.00	29.888 
18:20	81.8	81.8	79.8	22	39.2	1	5	270	0.00	29.888 
18:25	81.4	81.4	79.6	22	38.9	0	1	270	0.00	29.888 
18:30	81.2	81.2	79.5	23	39.9	0	2	270	0.00	29.885 
18:35	81.2	81.2	79.4	21	37.5	0	2	270	0.00	29.885 
18:40	81.1	81.1	79.3	21	37.4	1	4	270	0.00	29.885 
18:45	81.1	81.1	79.3	20	36.2	1	5	270	0.00	29.884 
18:50	80.9	80.9	79.1	20	36.0	0	2	270	0.00	29.884 
18:55	80.7	80.7	79.0	20	35.9	1	3	270	0.00	29.884 
19:00	80.5	80.5	79.0	22	38.1	1	4	270	0.00	29.880 
19:05	80.5	80.5	79.0	22	38.1	1	2	292	0.00	29.880 
19:10	80.3	80.3	78.8	21	36.8	0	2	292	0.00	29.880 
19:15	80.1	80.1	78.7	21	36.6	1	3	292	0.00	29.876 
19:20	79.9	79.9	78.6	22	37.6	0	4	292	0.00	29.876 
19:25	79.8	79.8	78.5	21	36.4	1	4	292	0.00	29.876 
19:30	79.6	79.6	78.4	21	36.2	1	4	270	0.00	29.873 
19:35	79.6	79.6	78.5	22	37.4	0	1	270	0.00	29.873 
19:40	79.2	79.2	78.2	22	37.1	0	2	270	0.00	29.873 
19:45	79.0	79.0	78.1	21	35.7	1	3	270	0.00	29.872 
19:50	79.0	79.0	78.1	22	36.9	0	1	270	0.00	29.872 
19:55	78.6	78.6	78.0	23	37.7	0	1	270	0.00	29.872 
20:00	78.5	78.5	77.9	23	37.6	0	1	270	0.00	29.872 
20:05	77.9	77.9	77.6	23	37.1	0	3	270	0.00	29.872 
20:10	77.6	77.6	77.5	23	36.9	0	1	270	0.00	29.872 
20:15	77.4	77.4	77.4	24	37.8	0	2	270	0.00	29.865 
20:20	77.0	77.0	77.2	23	36.3	0	2	270	0.00	29.865 
20:25	76.8	76.8	77.2	24	37.3	0	1	270	0.00	29.865 
20:30	76.5	76.5	77.0	24	37.0	0	1	270	0.00	29.863 
20:35	76.3	76.3	77.0	25	37.9	0	1	270	0.00	29.863 
20:40	76.0	76.0	76.9	25	37.6	0	1	270	0.00	29.863 
20:45	75.6	75.6	76.8	26	38.3	0	0	---	0.00	29.863 
20:50	75.3	75.3	76.7	26	38.0	0	1	270	0.00	29.863 
20:55	74.7	74.7	74.7	26	37.5	0	0	---	0.00	29.863 
21:00	74.4	74.4	74.4	27	38.2	0	1	270	0.00	29.864 
21:05	73.9	73.9	73.9	28	38.7	0	1	270	0.00	29.864 
21:10	73.5	73.5	73.5	27	37.5	0	0	---	0.00	29.864 
21:15	73.0	73.0	73.0	28	38.0	0	0	---	0.00	29.854 
21:20	72.5	72.5	72.5	27	36.6	0	1	270	0.00	29.854 
21:25	72.1	72.1	72.1	28	37.2	0	1	270	0.00	29.854 
21:30	71.8	71.8	71.8	29	37.8	0	1	270	0.00	29.857 
21:35	71.5	71.5	71.5	29	37.6	0	1	270	0.00	29.857 
21:40	71.3	71.3	71.3	29	37.4	0	1	270	0.00	29.857 
21:45	70.9	70.9	70.9	30	37.9	0	1	270	0.00	29.859 
21:50	70.6	70.6	70.6	30	37.6	0	0	---	0.00	29.859 
21:55	70.4	70.4	70.4	30	37.5	0	1	270	0.00	29.859 
22:00	70.1	70.1	70.1	30	37.2	0	0	---	0.00	29.862 
22:05	69.9	69.9	69.9	31	37.9	0	0	---	0.00	29.862 
22:10	69.6	69.6	69.6	32	38.4	0	0	---	0.00	29.862 
22:15	69.3	69.3	69.3	32	38.2	0	0	---	0.00	29.861 
22:20	69.1	69.1	69.1	32	38.0	0	0	---	0.00	29.861 
22:25	68.8	68.8	68.8	32	37.7	0	0	---	0.00	29.861 
22:30	68.6	68.6	68.6	33	38.3	0	1	270	0.00	29.874 
22:35	68.3	68.3	68.3	33	38.1	0	0	---	0.00	29.874 
22:40	68.1	68.1	68.1	33	37.9	0	0	---	0.00	29.874 
22:45	67.9	67.9	67.9	34	38.5	0	0	---	0.00	29.873 
22:50	67.8	67.8	67.8	34	38.4	0	0	---	0.00	29.873 
22:55	67.6	67.6	67.6	34	38.2	0	1	270	0.00	29.873 
23:00	67.4	67.4	67.4	35	38.8	0	0	---	0.00	29.874 
23:05	67.3	67.3	67.3	35	38.7	0	0	---	0.00	29.874 
23:10	67.1	67.1	67.1	34	37.8	0	0	---	0.00	29.874 
23:15	67.1	67.1	67.1	35	38.5	0	1	270	0.00	29.875 
23:20	66.9	66.9	66.9	35	38.4	0	0	---	0.00	29.875 
23:25	66.8	66.8	66.8	35	38.3	0	0	---	0.00	29.875 
23:30	66.6	66.6	66.6	36	38.8	0	1	270	0.00	29.874 
23:35	66.4	66.4	66.4	36	38.6	0	1	270	0.00	29.874 
23:40	66.3	66.3	66.3	36	38.5	0	0	---	0.00	29.874 
23:45	66.1	66.1	66.1	37	39.1	0	1	270	0.00	29.873 
23:50	65.8	65.8	65.8	37	38.8	0	0	---	0.00	29.873 
23:55	65.6	65.6	65.6	38	39.3	0	1	270	0.00	29.873 

CoCoRaHS
IN-AL-39
A2 Web Hosting
Creative Commons License
GoDaddy
search engine by freefind advanced

loaded 2018-11-17 18:38:13 • last modified 2010-11-18 10:43:29
Privacy PolicyDisclaimer
• wx.awcolley.com is powered by PmWiki v.2002016 •
• all content (unless otherwise noted) © 2018 A W Colley